sensor_id;sensor_type;location;lat;lon;timestamp;P1;durP1;ratioP1;P2;durP2;ratioP2
78404;SDS011;67689;43.592;1.418;2023-03-19T00:01:41;11.65;;;5.45;;
78404;SDS011;67689;43.592;1.418;2023-03-19T00:04:06;11.25;;;5.97;;
78404;SDS011;67689;43.592;1.418;2023-03-19T00:06:31;12.25;;;6.25;;
78404;SDS011;67689;43.592;1.418;2023-03-19T00:08:57;13.25;;;6.93;;
78404;SDS011;67689;43.592;1.418;2023-03-19T00:11:22;12.95;;;6.45;;
78404;SDS011;67689;43.592;1.418;2023-03-19T00:13:48;12.63;;;7.10;;
78404;SDS011;67689;43.592;1.418;2023-03-19T00:16:13;15.73;;;7.88;;
78404;SDS011;67689;43.592;1.418;2023-03-19T00:18:39;13.50;;;7.40;;
78404;SDS011;67689;43.592;1.418;2023-03-19T00:21:04;15.65;;;9.00;;
78404;SDS011;67689;43.592;1.418;2023-03-19T00:23:30;12.93;;;7.18;;
78404;SDS011;67689;43.592;1.418;2023-03-19T00:25:55;18.67;;;6.97;;
78404;SDS011;67689;43.592;1.418;2023-03-19T00:28:21;12.05;;;6.60;;
78404;SDS011;67689;43.592;1.418;2023-03-19T00:30:46;11.35;;;6.07;;
78404;SDS011;67689;43.592;1.418;2023-03-19T00:33:12;12.77;;;5.93;;
78404;SDS011;67689;43.592;1.418;2023-03-19T00:35:38;10.95;;;5.63;;
78404;SDS011;67689;43.592;1.418;2023-03-19T00:38:04;11.52;;;5.68;;
78404;SDS011;67689;43.592;1.418;2023-03-19T00:40:30;10.10;;;4.80;;
78404;SDS011;67689;43.592;1.418;2023-03-19T00:42:55;10.68;;;4.65;;
78404;SDS011;67689;43.592;1.418;2023-03-19T00:45:21;10.52;;;5.63;;
78404;SDS011;67689;43.592;1.418;2023-03-19T00:47:46;10.30;;;4.95;;
78404;SDS011;67689;43.592;1.418;2023-03-19T00:50:12;9.85;;;4.50;;
78404;SDS011;67689;43.592;1.418;2023-03-19T00:52:37;9.65;;;4.90;;
78404;SDS011;67689;43.592;1.418;2023-03-19T00:55:03;9.13;;;4.03;;
78404;SDS011;67689;43.592;1.418;2023-03-19T00:57:28;10.68;;;4.28;;
78404;SDS011;67689;43.592;1.418;2023-03-19T00:59:53;9.95;;;4.47;;
78404;SDS011;67689;43.592;1.418;2023-03-19T01:02:19;9.70;;;4.28;;
78404;SDS011;67689;43.592;1.418;2023-03-19T01:04:47;10.55;;;4.53;;
78404;SDS011;67689;43.592;1.418;2023-03-19T01:07:13;9.35;;;4.60;;
78404;SDS011;67689;43.592;1.418;2023-03-19T01:09:38;9.43;;;3.90;;
78404;SDS011;67689;43.592;1.418;2023-03-19T01:12:05;8.80;;;3.97;;
78404;SDS011;67689;43.592;1.418;2023-03-19T01:14:31;8.52;;;3.75;;
78404;SDS011;67689;43.592;1.418;2023-03-19T01:16:57;8.75;;;4.28;;
78404;SDS011;67689;43.592;1.418;2023-03-19T01:19:22;10.00;;;3.38;;
78404;SDS011;67689;43.592;1.418;2023-03-19T01:21:48;9.40;;;4.38;;
78404;SDS011;67689;43.592;1.418;2023-03-19T01:24:14;10.32;;;3.80;;
78404;SDS011;67689;43.592;1.418;2023-03-19T01:26:40;8.85;;;4.07;;
78404;SDS011;67689;43.592;1.418;2023-03-19T01:29:06;14.45;;;3.50;;
78404;SDS011;67689;43.592;1.418;2023-03-19T01:31:32;8.38;;;3.30;;
78404;SDS011;67689;43.592;1.418;2023-03-19T01:33:58;8.80;;;3.55;;
78404;SDS011;67689;43.592;1.418;2023-03-19T01:36:23;10.10;;;3.53;;
78404;SDS011;67689;43.592;1.418;2023-03-19T01:38:49;8.60;;;3.60;;
78404;SDS011;67689;43.592;1.418;2023-03-19T01:41:14;9.95;;;3.10;;
78404;SDS011;67689;43.592;1.418;2023-03-19T01:43:40;7.88;;;3.25;;
78404;SDS011;67689;43.592;1.418;2023-03-19T01:48:50;9.05;;;3.63;;
78404;SDS011;67689;43.592;1.418;2023-03-19T01:51:18;6.53;;;2.28;;
78404;SDS011;67689;43.592;1.418;2023-03-19T01:53:46;7.53;;;2.63;;
78404;SDS011;67689;43.592;1.418;2023-03-19T01:56:15;7.25;;;2.22;;
78404;SDS011;67689;43.592;1.418;2023-03-19T01:58:43;6.80;;;2.47;;
78404;SDS011;67689;43.592;1.418;2023-03-19T02:01:11;7.05;;;1.90;;
78404;SDS011;67689;43.592;1.418;2023-03-19T02:03:36;6.30;;;1.90;;
78404;SDS011;67689;43.592;1.418;2023-03-19T02:06:03;6.07;;;1.90;;
78404;SDS011;67689;43.592;1.418;2023-03-19T02:08:28;5.38;;;1.75;;
78404;SDS011;67689;43.592;1.418;2023-03-19T02:10:55;6.45;;;1.60;;
78404;SDS011;67689;43.592;1.418;2023-03-19T02:13:24;8.20;;;1.80;;
78404;SDS011;67689;43.592;1.418;2023-03-19T02:15:50;7.13;;;1.80;;
78404;SDS011;67689;43.592;1.418;2023-03-19T02:18:15;6.03;;;1.90;;
78404;SDS011;67689;43.592;1.418;2023-03-19T02:25:54;6.13;;;1.80;;
78404;SDS011;67689;43.592;1.418;2023-03-19T02:28:23;6.35;;;1.77;;
78404;SDS011;67689;43.592;1.418;2023-03-19T02:30:49;7.05;;;1.40;;
78404;SDS011;67689;43.592;1.418;2023-03-19T02:33:16;4.30;;;1.42;;
78404;SDS011;67689;43.592;1.418;2023-03-19T02:35:42;6.53;;;1.60;;
78404;SDS011;67689;43.592;1.418;2023-03-19T02:38:09;6.05;;;1.50;;
78404;SDS011;67689;43.592;1.418;2023-03-19T02:43:38;5.22;;;1.63;;
78404;SDS011;67689;43.592;1.418;2023-03-19T02:46:09;5.57;;;1.60;;
78404;SDS011;67689;43.592;1.418;2023-03-19T02:48:35;5.97;;;1.58;;
78404;SDS011;67689;43.592;1.418;2023-03-19T02:51:01;5.07;;;1.50;;
78404;SDS011;67689;43.592;1.418;2023-03-19T02:53:27;5.57;;;1.90;;
78404;SDS011;67689;43.592;1.418;2023-03-19T02:55:53;5.65;;;1.73;;
78404;SDS011;67689;43.592;1.418;2023-03-19T02:58:18;5.93;;;1.60;;
78404;SDS011;67689;43.592;1.418;2023-03-19T03:00:44;4.45;;;1.50;;
78404;SDS011;67689;43.592;1.418;2023-03-19T03:03:10;5.65;;;1.60;;
78404;SDS011;67689;43.592;1.418;2023-03-19T03:05:36;4.03;;;1.30;;
78404;SDS011;67689;43.592;1.418;2023-03-19T03:08:02;6.20;;;1.50;;
78404;SDS011;67689;43.592;1.418;2023-03-19T03:10:28;6.38;;;1.60;;
78404;SDS011;67689;43.592;1.418;2023-03-19T03:12:53;3.40;;;1.20;;
78404;SDS011;67689;43.592;1.418;2023-03-19T03:15:18;4.53;;;1.45;;
78404;SDS011;67689;43.592;1.418;2023-03-19T03:17:44;4.85;;;1.50;;
78404;SDS011;67689;43.592;1.418;2023-03-19T03:20:10;3.47;;;1.20;;
78404;SDS011;67689;43.592;1.418;2023-03-19T03:22:37;5.18;;;1.25;;
78404;SDS011;67689;43.592;1.418;2023-03-19T03:25:03;5.75;;;1.42;;
78404;SDS011;67689;43.592;1.418;2023-03-19T03:27:29;4.43;;;1.20;;
78404;SDS011;67689;43.592;1.418;2023-03-19T03:29:55;5.43;;;1.40;;
78404;SDS011;67689;43.592;1.418;2023-03-19T03:32:21;5.65;;;1.15;;
78404;SDS011;67689;43.592;1.418;2023-03-19T03:34:46;3.67;;;1.30;;
78404;SDS011;67689;43.592;1.418;2023-03-19T03:37:11;3.45;;;1.20;;
78404;SDS011;67689;43.592;1.418;2023-03-19T03:39:37;4.22;;;1.35;;
78404;SDS011;67689;43.592;1.418;2023-03-19T03:42:02;5.53;;;1.30;;
78404;SDS011;67689;43.592;1.418;2023-03-19T03:44:29;4.97;;;1.50;;
78404;SDS011;67689;43.592;1.418;2023-03-19T03:46:54;6.03;;;1.17;;
78404;SDS011;67689;43.592;1.418;2023-03-19T03:49:20;3.50;;;1.10;;
78404;SDS011;67689;43.592;1.418;2023-03-19T03:51:46;4.38;;;1.30;;
78404;SDS011;67689;43.592;1.418;2023-03-19T03:54:11;5.10;;;1.50;;
78404;SDS011;67689;43.592;1.418;2023-03-19T03:56:37;6.28;;;1.40;;
78404;SDS011;67689;43.592;1.418;2023-03-19T03:59:02;7.53;;;1.40;;
78404;SDS011;67689;43.592;1.418;2023-03-19T04:01:28;5.10;;;1.50;;
78404;SDS011;67689;43.592;1.418;2023-03-19T04:03:53;5.55;;;1.60;;
78404;SDS011;67689;43.592;1.418;2023-03-19T04:06:19;6.30;;;1.50;;
78404;SDS011;67689;43.592;1.418;2023-03-19T04:08:46;5.60;;;1.50;;
78404;SDS011;67689;43.592;1.418;2023-03-19T04:11:12;4.85;;;1.27;;
78404;SDS011;67689;43.592;1.418;2023-03-19T04:13:37;5.10;;;1.30;;
78404;SDS011;67689;43.592;1.418;2023-03-19T04:16:03;4.90;;;1.48;;
78404;SDS011;67689;43.592;1.418;2023-03-19T04:18:29;6.85;;;1.38;;
78404;SDS011;67689;43.592;1.418;2023-03-19T04:20:55;4.25;;;1.30;;
78404;SDS011;67689;43.592;1.418;2023-03-19T04:23:21;3.88;;;1.20;;
78404;SDS011;67689;43.592;1.418;2023-03-19T04:25:47;2.47;;;1.10;;
78404;SDS011;67689;43.592;1.418;2023-03-19T04:28:12;3.78;;;1.00;;
78404;SDS011;67689;43.592;1.418;2023-03-19T04:30:38;3.38;;;1.00;;
78404;SDS011;67689;43.592;1.418;2023-03-19T04:33:03;2.90;;;1.10;;
78404;SDS011;67689;43.592;1.418;2023-03-19T04:35:30;2.42;;;1.02;;
78404;SDS011;67689;43.592;1.418;2023-03-19T04:37:56;2.30;;;0.80;;
78404;SDS011;67689;43.592;1.418;2023-03-19T04:40:21;3.95;;;1.10;;
78404;SDS011;67689;43.592;1.418;2023-03-19T04:42:47;4.53;;;1.33;;
78404;SDS011;67689;43.592;1.418;2023-03-19T04:45:12;5.78;;;1.20;;
78404;SDS011;67689;43.592;1.418;2023-03-19T04:47:37;3.25;;;1.10;;
78404;SDS011;67689;43.592;1.418;2023-03-19T04:50:04;3.03;;;1.00;;
78404;SDS011;67689;43.592;1.418;2023-03-19T04:52:31;2.80;;;1.00;;
78404;SDS011;67689;43.592;1.418;2023-03-19T04:54:57;4.28;;;1.00;;
78404;SDS011;67689;43.592;1.418;2023-03-19T04:57:23;4.18;;;1.00;;
78404;SDS011;67689;43.592;1.418;2023-03-19T04:59:48;3.42;;;1.23;;
78404;SDS011;67689;43.592;1.418;2023-03-19T05:02:16;3.30;;;1.08;;
78404;SDS011;67689;43.592;1.418;2023-03-19T05:04:42;3.85;;;1.35;;
78404;SDS011;67689;43.592;1.418;2023-03-19T05:07:07;2.53;;;1.10;;
78404;SDS011;67689;43.592;1.418;2023-03-19T05:09:33;4.13;;;1.20;;
78404;SDS011;67689;43.592;1.418;2023-03-19T05:11:58;4.60;;;1.10;;
78404;SDS011;67689;43.592;1.418;2023-03-19T05:14:23;2.95;;;1.50;;
78404;SDS011;67689;43.592;1.418;2023-03-19T05:16:49;5.45;;;1.30;;
78404;SDS011;67689;43.592;1.418;2023-03-19T05:19:15;3.45;;;1.38;;
78404;SDS011;67689;43.592;1.418;2023-03-19T05:21:41;3.90;;;1.20;;
78404;SDS011;67689;43.592;1.418;2023-03-19T05:24:06;1.88;;;1.00;;
78404;SDS011;67689;43.592;1.418;2023-03-19T05:26:32;5.82;;;1.20;;
78404;SDS011;67689;43.592;1.418;2023-03-19T05:28:57;5.55;;;1.20;;
78404;SDS011;67689;43.592;1.418;2023-03-19T05:31:23;3.42;;;1.10;;
78404;SDS011;67689;43.592;1.418;2023-03-19T05:33:48;5.03;;;1.40;;
78404;SDS011;67689;43.592;1.418;2023-03-19T05:36:14;6.47;;;1.40;;
78404;SDS011;67689;43.592;1.418;2023-03-19T05:38:39;5.05;;;1.40;;
78404;SDS011;67689;43.592;1.418;2023-03-19T05:41:05;5.60;;;1.45;;
78404;SDS011;67689;43.592;1.418;2023-03-19T05:43:31;4.90;;;1.35;;
78404;SDS011;67689;43.592;1.418;2023-03-19T05:45:57;7.22;;;1.58;;
78404;SDS011;67689;43.592;1.418;2023-03-19T05:48:23;8.40;;;2.20;;
78404;SDS011;67689;43.592;1.418;2023-03-19T05:50:48;6.18;;;1.75;;
78404;SDS011;67689;43.592;1.418;2023-03-19T05:53:14;6.90;;;1.65;;
78404;SDS011;67689;43.592;1.418;2023-03-19T05:55:39;10.50;;;2.20;;
78404;SDS011;67689;43.592;1.418;2023-03-19T05:58:05;6.93;;;1.40;;
78404;SDS011;67689;43.592;1.418;2023-03-19T06:00:31;6.78;;;1.70;;
78404;SDS011;67689;43.592;1.418;2023-03-19T06:02:57;6.55;;;1.33;;
78404;SDS011;67689;43.592;1.418;2023-03-19T06:05:22;5.32;;;1.52;;
78404;SDS011;67689;43.592;1.418;2023-03-19T06:07:47;6.15;;;1.90;;
78404;SDS011;67689;43.592;1.418;2023-03-19T06:10:13;10.65;;;1.98;;
78404;SDS011;67689;43.592;1.418;2023-03-19T06:12:38;8.05;;;1.67;;
78404;SDS011;67689;43.592;1.418;2023-03-19T06:15:04;4.97;;;1.45;;
78404;SDS011;67689;43.592;1.418;2023-03-19T06:17:30;4.97;;;1.50;;
78404;SDS011;67689;43.592;1.418;2023-03-19T06:19:56;4.88;;;1.33;;
78404;SDS011;67689;43.592;1.418;2023-03-19T06:22:21;6.68;;;1.55;;
78404;SDS011;67689;43.592;1.418;2023-03-19T06:24:47;6.93;;;2.00;;
78404;SDS011;67689;43.592;1.418;2023-03-19T06:27:12;6.93;;;1.60;;
78404;SDS011;67689;43.592;1.418;2023-03-19T06:29:37;6.10;;;1.52;;
78404;SDS011;67689;43.592;1.418;2023-03-19T06:32:03;6.38;;;1.88;;
78404;SDS011;67689;43.592;1.418;2023-03-19T06:34:31;6.25;;;1.80;;
78404;SDS011;67689;43.592;1.418;2023-03-19T06:36:57;5.00;;;1.70;;
78404;SDS011;67689;43.592;1.418;2023-03-19T06:39:22;6.22;;;1.50;;
78404;SDS011;67689;43.592;1.418;2023-03-19T06:41:48;6.28;;;1.42;;
78404;SDS011;67689;43.592;1.418;2023-03-19T06:44:13;5.93;;;1.70;;
78404;SDS011;67689;43.592;1.418;2023-03-19T06:46:38;7.43;;;1.30;;
78404;SDS011;67689;43.592;1.418;2023-03-19T06:49:04;5.93;;;1.48;;
78404;SDS011;67689;43.592;1.418;2023-03-19T06:51:30;4.80;;;1.38;;
78404;SDS011;67689;43.592;1.418;2023-03-19T06:53:56;6.25;;;1.50;;
78404;SDS011;67689;43.592;1.418;2023-03-19T06:56:21;4.97;;;1.40;;
78404;SDS011;67689;43.592;1.418;2023-03-19T06:58:48;5.07;;;1.50;;
78404;SDS011;67689;43.592;1.418;2023-03-19T07:01:14;4.53;;;1.33;;
78404;SDS011;67689;43.592;1.418;2023-03-19T07:03:40;5.38;;;1.33;;
78404;SDS011;67689;43.592;1.418;2023-03-19T07:06:05;4.13;;;1.20;;
78404;SDS011;67689;43.592;1.418;2023-03-19T07:08:31;5.43;;;1.90;;
78404;SDS011;67689;43.592;1.418;2023-03-19T07:11:02;6.07;;;2.00;;
78404;SDS011;67689;43.592;1.418;2023-03-19T07:13:28;6.18;;;1.85;;
78404;SDS011;67689;43.592;1.418;2023-03-19T07:15:54;4.18;;;1.30;;
78404;SDS011;67689;43.592;1.418;2023-03-19T07:18:19;6.75;;;1.48;;
78404;SDS011;67689;43.592;1.418;2023-03-19T07:20:45;3.83;;;1.20;;
78404;SDS011;67689;43.592;1.418;2023-03-19T07:23:10;6.47;;;1.38;;
78404;SDS011;67689;43.592;1.418;2023-03-19T07:25:36;4.07;;;1.33;;
78404;SDS011;67689;43.592;1.418;2023-03-19T07:28:01;5.63;;;1.27;;
78404;SDS011;67689;43.592;1.418;2023-03-19T07:30:26;4.65;;;1.55;;
78404;SDS011;67689;43.592;1.418;2023-03-19T07:32:52;4.43;;;1.20;;
78404;SDS011;67689;43.592;1.418;2023-03-19T07:35:17;4.03;;;1.27;;
78404;SDS011;67689;43.592;1.418;2023-03-19T07:37:42;5.00;;;1.60;;
78404;SDS011;67689;43.592;1.418;2023-03-19T07:40:08;6.05;;;1.77;;
78404;SDS011;67689;43.592;1.418;2023-03-19T07:42:34;4.38;;;1.40;;
78404;SDS011;67689;43.592;1.418;2023-03-19T07:45:01;3.42;;;1.33;;
78404;SDS011;67689;43.592;1.418;2023-03-19T07:47:27;2.85;;;1.10;;
78404;SDS011;67689;43.592;1.418;2023-03-19T07:49:53;3.40;;;1.20;;
78404;SDS011;67689;43.592;1.418;2023-03-19T07:52:18;4.47;;;1.45;;
78404;SDS011;67689;43.592;1.418;2023-03-19T07:54:44;3.53;;;1.30;;
78404;SDS011;67689;43.592;1.418;2023-03-19T07:57:09;4.97;;;1.30;;
78404;SDS011;67689;43.592;1.418;2023-03-19T07:59:34;3.00;;;1.10;;
78404;SDS011;67689;43.592;1.418;2023-03-19T08:02:00;3.88;;;1.10;;
78404;SDS011;67689;43.592;1.418;2023-03-19T08:04:25;5.28;;;1.42;;
78404;SDS011;67689;43.592;1.418;2023-03-19T08:06:51;5.15;;;1.30;;
78404;SDS011;67689;43.592;1.418;2023-03-19T08:09:16;3.08;;;1.10;;
78404;SDS011;67689;43.592;1.418;2023-03-19T08:11:41;5.65;;;1.40;;
78404;SDS011;67689;43.592;1.418;2023-03-19T08:14:07;6.05;;;1.73;;
78404;SDS011;67689;43.592;1.418;2023-03-19T08:16:32;6.15;;;1.67;;
78404;SDS011;67689;43.592;1.418;2023-03-19T08:18:58;6.38;;;1.40;;
78404;SDS011;67689;43.592;1.418;2023-03-19T08:21:23;6.25;;;1.60;;
78404;SDS011;67689;43.592;1.418;2023-03-19T08:23:48;6.93;;;1.67;;
78404;SDS011;67689;43.592;1.418;2023-03-19T08:26:14;3.78;;;1.30;;
78404;SDS011;67689;43.592;1.418;2023-03-19T08:28:40;3.20;;;1.20;;
78404;SDS011;67689;43.592;1.418;2023-03-19T08:31:06;4.15;;;1.25;;
78404;SDS011;67689;43.592;1.418;2023-03-19T08:33:32;3.63;;;1.30;;
78404;SDS011;67689;43.592;1.418;2023-03-19T08:36:05;6.47;;;1.70;;
78404;SDS011;67689;43.592;1.418;2023-03-19T08:38:33;5.20;;;1.50;;
78404;SDS011;67689;43.592;1.418;2023-03-19T08:40:59;9.55;;;1.60;;
78404;SDS011;67689;43.592;1.418;2023-03-19T08:43:27;5.20;;;1.52;;
78404;SDS011;67689;43.592;1.418;2023-03-19T08:45:52;7.43;;;2.00;;
78404;SDS011;67689;43.592;1.418;2023-03-19T08:48:21;6.90;;;1.80;;
78404;SDS011;67689;43.592;1.418;2023-03-19T08:50:51;3.75;;;1.20;;
78404;SDS011;67689;43.592;1.418;2023-03-19T08:53:20;5.05;;;1.35;;
78404;SDS011;67689;43.592;1.418;2023-03-19T08:55:54;6.30;;;1.40;;
78404;SDS011;67689;43.592;1.418;2023-03-19T08:58:21;5.60;;;1.48;;
78404;SDS011;67689;43.592;1.418;2023-03-19T09:00:47;5.60;;;1.40;;
78404;SDS011;67689;43.592;1.418;2023-03-19T09:03:13;6.80;;;1.60;;
78404;SDS011;67689;43.592;1.418;2023-03-19T09:05:38;4.03;;;1.30;;
78404;SDS011;67689;43.592;1.418;2023-03-19T09:08:04;5.22;;;1.63;;
78404;SDS011;67689;43.592;1.418;2023-03-19T09:10:30;3.55;;;1.13;;
78404;SDS011;67689;43.592;1.418;2023-03-19T09:12:55;4.97;;;1.50;;
78404;SDS011;67689;43.592;1.418;2023-03-19T09:15:21;3.80;;;1.10;;
78404;SDS011;67689;43.592;1.418;2023-03-19T09:17:46;3.42;;;1.00;;
78404;SDS011;67689;43.592;1.418;2023-03-19T09:20:11;3.70;;;1.20;;
78404;SDS011;67689;43.592;1.418;2023-03-19T09:22:37;2.83;;;1.05;;
78404;SDS011;67689;43.592;1.418;2023-03-19T09:25:02;3.50;;;1.20;;
78404;SDS011;67689;43.592;1.418;2023-03-19T09:27:28;3.05;;;1.17;;
78404;SDS011;67689;43.592;1.418;2023-03-19T09:29:53;3.33;;;1.10;;
78404;SDS011;67689;43.592;1.418;2023-03-19T09:32:19;3.45;;;1.10;;
78404;SDS011;67689;43.592;1.418;2023-03-19T09:34:44;2.97;;;1.13;;
78404;SDS011;67689;43.592;1.418;2023-03-19T09:37:11;2.70;;;1.05;;
78404;SDS011;67689;43.592;1.418;2023-03-19T09:39:37;1.88;;;0.93;;
78404;SDS011;67689;43.592;1.418;2023-03-19T09:45:12;3.40;;;1.33;;
78404;SDS011;67689;43.592;1.418;2023-03-19T09:47:39;4.43;;;1.20;;
78404;SDS011;67689;43.592;1.418;2023-03-19T09:50:09;2.55;;;1.08;;
78404;SDS011;67689;43.592;1.418;2023-03-19T09:52:50;4.45;;;1.10;;
78404;SDS011;67689;43.592;1.418;2023-03-19T09:55:33;2.67;;;1.10;;
78404;SDS011;67689;43.592;1.418;2023-03-19T09:57:59;3.72;;;1.30;;
78404;SDS011;67689;43.592;1.418;2023-03-19T10:00:35;2.45;;;0.90;;
78404;SDS011;67689;43.592;1.418;2023-03-19T10:16:50;3.75;;;1.10;;
78404;SDS011;67689;43.592;1.418;2023-03-19T10:19:23;4.07;;;1.00;;
78404;SDS011;67689;43.592;1.418;2023-03-19T10:21:58;2.13;;;1.02;;
78404;SDS011;67689;43.592;1.418;2023-03-19T10:24:33;2.50;;;1.00;;
78404;SDS011;67689;43.592;1.418;2023-03-19T10:29:57;3.45;;;1.17;;
78404;SDS011;67689;43.592;1.418;2023-03-19T10:32:40;2.10;;;0.95;;
78404;SDS011;67689;43.592;1.418;2023-03-19T10:35:09;2.53;;;1.00;;
78404;SDS011;67689;43.592;1.418;2023-03-19T10:43:42;1.73;;;0.90;;
78404;SDS011;67689;43.592;1.418;2023-03-19T10:46:13;1.58;;;0.90;;
78404;SDS011;67689;43.592;1.418;2023-03-19T10:48:43;1.73;;;1.00;;
78404;SDS011;67689;43.592;1.418;2023-03-19T10:51:09;2.72;;;1.00;;
78404;SDS011;67689;43.592;1.418;2023-03-19T10:53:38;2.25;;;1.15;;
78404;SDS011;67689;43.592;1.418;2023-03-19T10:56:15;2.08;;;1.10;;
78404;SDS011;67689;43.592;1.418;2023-03-19T10:58:54;1.58;;;0.90;;
78404;SDS011;67689;43.592;1.418;2023-03-19T11:01:22;3.03;;;1.00;;
78404;SDS011;67689;43.592;1.418;2023-03-19T11:03:54;3.55;;;1.00;;
78404;SDS011;67689;43.592;1.418;2023-03-19T11:06:26;2.40;;;1.00;;
78404;SDS011;67689;43.592;1.418;2023-03-19T11:09:02;6.95;;;2.15;;
78404;SDS011;67689;43.592;1.418;2023-03-19T11:14:16;9.95;;;3.90;;
78404;SDS011;67689;43.592;1.418;2023-03-19T11:16:56;3.95;;;1.20;;
78404;SDS011;67689;43.592;1.418;2023-03-19T11:19:24;3.88;;;1.42;;
78404;SDS011;67689;43.592;1.418;2023-03-19T11:28:14;4.60;;;1.58;;
78404;SDS011;67689;43.592;1.418;2023-03-19T11:38:38;3.08;;;1.10;;
78404;SDS011;67689;43.592;1.418;2023-03-19T11:41:21;3.83;;;1.40;;
78404;SDS011;67689;43.592;1.418;2023-03-19T11:49:45;3.85;;;1.30;;
78404;SDS011;67689;43.592;1.418;2023-03-19T11:52:19;5.50;;;2.05;;
78404;SDS011;67689;43.592;1.418;2023-03-19T11:58:07;5.22;;;1.60;;
78404;SDS011;67689;43.592;1.418;2023-03-19T12:00:45;4.20;;;1.30;;
78404;SDS011;67689;43.592;1.418;2023-03-19T12:10:51;2.30;;;1.10;;
78404;SDS011;67689;43.592;1.418;2023-03-19T12:16:19;3.67;;;1.23;;
78404;SDS011;67689;43.592;1.418;2023-03-19T12:24:32;2.83;;;1.15;;
78404;SDS011;67689;43.592;1.418;2023-03-19T12:35:13;1.92;;;0.85;;
78404;SDS011;67689;43.592;1.418;2023-03-19T12:37:56;1.30;;;0.90;;
78404;SDS011;67689;43.592;1.418;2023-03-19T12:40:34;2.42;;;0.95;;
78404;SDS011;67689;43.592;1.418;2023-03-19T12:43:25;2.08;;;1.00;;
78404;SDS011;67689;43.592;1.418;2023-03-19T12:46:40;3.03;;;1.00;;
78404;SDS011;67689;43.592;1.418;2023-03-19T12:54:49;0.98;;;0.82;;
78404;SDS011;67689;43.592;1.418;2023-03-19T12:57:29;1.85;;;1.00;;
78404;SDS011;67689;43.592;1.418;2023-03-19T13:00:06;1.52;;;0.85;;
78404;SDS011;67689;43.592;1.418;2023-03-19T13:05:56;1.77;;;0.82;;
78404;SDS011;67689;43.592;1.418;2023-03-19T13:08:15;1.02;;;0.80;;
78404;SDS011;67689;43.592;1.418;2023-03-19T13:10:45;1.50;;;0.77;;
78404;SDS011;67689;43.592;1.418;2023-03-19T13:15:48;2.05;;;0.80;;
78404;SDS011;67689;43.592;1.418;2023-03-19T13:23:12;1.45;;;0.90;;
78404;SDS011;67689;43.592;1.418;2023-03-19T13:28:21;2.50;;;0.80;;
78404;SDS011;67689;43.592;1.418;2023-03-19T13:30:58;1.80;;;0.90;;
78404;SDS011;67689;43.592;1.418;2023-03-19T13:33:26;3.10;;;1.08;;
78404;SDS011;67689;43.592;1.418;2023-03-19T13:35:52;4.00;;;1.25;;
78404;SDS011;67689;43.592;1.418;2023-03-19T13:38:26;3.47;;;1.17;;
78404;SDS011;67689;43.592;1.418;2023-03-19T13:40:56;5.55;;;1.63;;
78404;SDS011;67689;43.592;1.418;2023-03-19T13:48:37;4.60;;;0.90;;
78404;SDS011;67689;43.592;1.418;2023-03-19T13:51:24;3.65;;;1.00;;
78404;SDS011;67689;43.592;1.418;2023-03-19T13:53:52;4.85;;;1.30;;
78404;SDS011;67689;43.592;1.418;2023-03-19T13:56:18;3.55;;;1.20;;
78404;SDS011;67689;43.592;1.418;2023-03-19T14:03:57;3.20;;;1.00;;
78404;SDS011;67689;43.592;1.418;2023-03-19T14:06:30;4.35;;;1.30;;
78404;SDS011;67689;43.592;1.418;2023-03-19T14:09:01;3.88;;;1.30;;
78404;SDS011;67689;43.592;1.418;2023-03-19T14:11:31;4.10;;;1.27;;
78404;SDS011;67689;43.592;1.418;2023-03-19T14:14:00;7.18;;;2.45;;
78404;SDS011;67689;43.592;1.418;2023-03-19T14:16:34;3.70;;;0.93;;
78404;SDS011;67689;43.592;1.418;2023-03-19T14:19:02;5.38;;;1.60;;
78404;SDS011;67689;43.592;1.418;2023-03-19T14:21:40;13.45;;;5.95;;
78404;SDS011;67689;43.592;1.418;2023-03-19T14:27:03;4.32;;;1.40;;
78404;SDS011;67689;43.592;1.418;2023-03-19T14:29:37;4.13;;;1.33;;
78404;SDS011;67689;43.592;1.418;2023-03-19T14:32:06;4.20;;;1.65;;
78404;SDS011;67689;43.592;1.418;2023-03-19T14:34:40;4.78;;;1.50;;
78404;SDS011;67689;43.592;1.418;2023-03-19T14:37:18;5.35;;;1.80;;
78404;SDS011;67689;43.592;1.418;2023-03-19T14:39:44;5.22;;;1.05;;
78404;SDS011;67689;43.592;1.418;2023-03-19T14:52:51;3.03;;;1.15;;
78404;SDS011;67689;43.592;1.418;2023-03-19T14:55:23;4.85;;;1.90;;
78404;SDS011;67689;43.592;1.418;2023-03-19T14:57:59;12.85;;;5.32;;
78404;SDS011;67689;43.592;1.418;2023-03-19T15:00:25;2.63;;;1.02;;
78404;SDS011;67689;43.592;1.418;2023-03-19T15:02:50;7.20;;;3.03;;
78404;SDS011;67689;43.592;1.418;2023-03-19T15:05:27;3.42;;;1.38;;
78404;SDS011;67689;43.592;1.418;2023-03-19T15:07:54;3.70;;;0.95;;
78404;SDS011;67689;43.592;1.418;2023-03-19T15:11:12;5.40;;;1.60;;
78404;SDS011;67689;43.592;1.418;2023-03-19T15:19:08;2.30;;;0.90;;
78404;SDS011;67689;43.592;1.418;2023-03-19T15:21:35;2.05;;;1.00;;
78404;SDS011;67689;43.592;1.418;2023-03-19T15:24:01;2.13;;;1.00;;
78404;SDS011;67689;43.592;1.418;2023-03-19T15:26:32;1.85;;;0.90;;
78404;SDS011;67689;43.592;1.418;2023-03-19T15:28:59;3.00;;;1.00;;
78404;SDS011;67689;43.592;1.418;2023-03-19T15:31:40;3.78;;;1.52;;
78404;SDS011;67689;43.592;1.418;2023-03-19T15:34:17;3.65;;;1.20;;
78404;SDS011;67689;43.592;1.418;2023-03-19T15:36:43;2.03;;;0.90;;
78404;SDS011;67689;43.592;1.418;2023-03-19T15:39:09;1.42;;;0.90;;
78404;SDS011;67689;43.592;1.418;2023-03-19T15:41:37;2.70;;;1.02;;
78404;SDS011;67689;43.592;1.418;2023-03-19T15:44:05;4.05;;;1.23;;
78404;SDS011;67689;43.592;1.418;2023-03-19T15:46:34;3.53;;;1.05;;
78404;SDS011;67689;43.592;1.418;2023-03-19T15:49:06;2.35;;;0.90;;
78404;SDS011;67689;43.592;1.418;2023-03-19T15:51:37;3.22;;;1.30;;
78404;SDS011;67689;43.592;1.418;2023-03-19T15:54:03;4.30;;;1.23;;
78404;SDS011;67689;43.592;1.418;2023-03-19T15:56:29;5.20;;;1.75;;
78404;SDS011;67689;43.592;1.418;2023-03-19T15:58:56;3.90;;;1.40;;
78404;SDS011;67689;43.592;1.418;2023-03-19T16:01:22;3.08;;;1.10;;
78404;SDS011;67689;43.592;1.418;2023-03-19T16:03:54;2.97;;;1.00;;
78404;SDS011;67689;43.592;1.418;2023-03-19T16:08:52;3.78;;;1.13;;
78404;SDS011;67689;43.592;1.418;2023-03-19T16:11:36;3.65;;;1.02;;
78404;SDS011;67689;43.592;1.418;2023-03-19T16:16:49;3.42;;;1.10;;
78404;SDS011;67689;43.592;1.418;2023-03-19T16:21:58;5.30;;;1.90;;
78404;SDS011;67689;43.592;1.418;2023-03-19T16:24:26;4.68;;;1.20;;
78404;SDS011;67689;43.592;1.418;2023-03-19T16:26:58;3.78;;;1.23;;
78404;SDS011;67689;43.592;1.418;2023-03-19T16:29:28;2.58;;;1.00;;
78404;SDS011;67689;43.592;1.418;2023-03-19T16:32:13;1.45;;;0.90;;
78404;SDS011;67689;43.592;1.418;2023-03-19T16:34:47;3.17;;;1.10;;
78404;SDS011;67689;43.592;1.418;2023-03-19T16:45:46;3.10;;;1.23;;
78404;SDS011;67689;43.592;1.418;2023-03-19T16:47:57;2.05;;;1.02;;
78404;SDS011;67689;43.592;1.418;2023-03-19T16:50:31;4.18;;;1.63;;
78404;SDS011;67689;43.592;1.418;2023-03-19T16:52:58;3.22;;;1.23;;
78404;SDS011;67689;43.592;1.418;2023-03-19T16:55:29;2.83;;;1.20;;
78404;SDS011;67689;43.592;1.418;2023-03-19T16:58:00;3.97;;;1.17;;
78404;SDS011;67689;43.592;1.418;2023-03-19T17:00:29;2.90;;;1.20;;
78404;SDS011;67689;43.592;1.418;2023-03-19T17:02:55;4.72;;;1.23;;
78404;SDS011;67689;43.592;1.418;2023-03-19T17:05:22;3.35;;;1.30;;
78404;SDS011;67689;43.592;1.418;2023-03-19T17:07:48;3.80;;;1.10;;
78404;SDS011;67689;43.592;1.418;2023-03-19T17:10:18;4.38;;;1.30;;
78404;SDS011;67689;43.592;1.418;2023-03-19T17:12:45;2.80;;;1.10;;
78404;SDS011;67689;43.592;1.418;2023-03-19T17:15:34;2.75;;;1.10;;
78404;SDS011;67689;43.592;1.418;2023-03-19T17:17:59;3.78;;;0.90;;
78404;SDS011;67689;43.592;1.418;2023-03-19T17:20:26;2.92;;;1.00;;
78404;SDS011;67689;43.592;1.418;2023-03-19T17:22:55;2.28;;;1.00;;